createdAt,value
2023-05-25T00:02:15.468Z,94959.69
2023-05-25T00:04:48.385Z,94964.97
2023-05-25T00:07:19.846Z,94964.16
2023-05-25T00:09:48.870Z,94966.81
2023-05-25T00:12:17.831Z,94967.84
2023-05-25T00:14:47.525Z,94963.38
2023-05-25T00:17:16.434Z,94966.22
2023-05-25T00:19:44.152Z,94969.69
2023-05-25T00:22:13.856Z,94974.75
2023-05-25T00:24:40.843Z,94971.06
2023-05-25T00:27:09.787Z,94977.41
2023-05-25T00:29:36.707Z,94966.81
2023-05-25T00:32:06.169Z,94969.47
2023-05-25T00:34:32.838Z,94964.16
2023-05-25T00:36:59.615Z,94971.06
2023-05-25T00:39:26.408Z,94968.66
2023-05-25T00:41:55.996Z,94967.84
2023-05-25T00:44:24.907Z,94963.78
2023-05-25T00:46:52.446Z,94974.75
2023-05-25T00:49:24.486Z,94982.47
2023-05-25T00:51:52.578Z,94977.97
2023-05-25T00:54:19.602Z,94976.94
2023-05-25T00:57:07.456Z,94976.38
2023-05-25T00:59:37.078Z,94972.09
2023-05-25T01:02:06.952Z,94983.28
2023-05-25T01:04:35.020Z,94979.38
2023-05-25T01:07:04.496Z,94988.16
2023-05-25T01:09:31.389Z,94988.16
2023-05-25T01:12:00.269Z,94990.78
2023-05-25T01:14:29.288Z,94989.75
2023-05-25T01:17:00.716Z,94997.91
2023-05-25T01:19:27.407Z,94988.56
2023-05-25T01:22:18.310Z,94981.19
2023-05-25T01:24:49.687Z,94981.19
2023-05-25T01:27:32.701Z,94982.84
2023-05-25T01:29:59.871Z,94981.19
2023-05-25T01:32:28.836Z,94978.56
2023-05-25T01:35:01.269Z,94978.34
2023-05-25T01:37:31.527Z,94977.56
2023-05-25T01:40:00.630Z,94970.19
2023-05-25T01:42:29.977Z,94962.44
2023-05-25T01:44:58.843Z,94960.38
2023-05-25T01:47:37.607Z,94951.41
2023-05-25T01:50:27.160Z,94957.97
2023-05-25T01:52:59.322Z,94956.69
2023-05-25T01:55:29.225Z,94957.53
2023-05-25T01:57:58.090Z,94963.59
2023-05-25T02:00:32.257Z,94966.03
2023-05-25T02:03:02.203Z,94959.59
2023-05-25T02:05:31.661Z,94965.47
2023-05-25T02:07:58.418Z,94970.97
2023-05-25T02:10:27.424Z,94972.59
2023-05-25T02:12:56.486Z,94970.97
2023-05-25T02:15:23.490Z,94962.81
2023-05-25T02:17:50.765Z,94976.63
2023-05-25T02:20:19.701Z,94969.28
2023-05-25T02:22:46.396Z,94973.41
2023-05-25T02:25:13.378Z,94984.59
2023-05-25T02:27:40.084Z,94987.22
2023-05-25T02:30:07.837Z,94994.13
2023-05-25T02:32:35.378Z,94988.84
2023-05-25T02:35:04.242Z,94996.78
2023-05-25T02:37:30.952Z,94993.56
2023-05-25T02:39:57.748Z,94994.97
2023-05-25T02:42:24.816Z,95010.03
2023-05-25T02:44:53.772Z,95014.75
2023-05-25T02:47:22.987Z,95014.53
2023-05-25T02:49:52.357Z,95015.31
2023-05-25T02:52:19.135Z,95012.09
2023-05-25T02:54:45.956Z,95016.56
2023-05-25T02:57:14.820Z,95016.94
2023-05-25T02:59:41.514Z,95017.41
2023-05-25T03:02:10.373Z,95014.75
2023-05-25T03:04:38.985Z,95017.41
2023-05-25T03:07:05.803Z,95017.84
2023-05-25T03:09:32.545Z,95019.47
2023-05-25T03:12:03.953Z,95025.56
2023-05-25T03:14:30.652Z,95028.78
2023-05-25T03:16:57.845Z,95022.69
2023-05-25T03:19:24.648Z,95022.13
2023-05-25T03:21:51.325Z,95022.13
2023-05-25T03:24:20.142Z,95021.09
2023-05-25T03:26:51.565Z,95016.91
2023-05-25T03:29:18.197Z,95028.00
2023-05-25T03:31:47.060Z,95026.84
2023-05-25T03:34:13.748Z,95034.78
2023-05-25T03:36:46.017Z,95032.91
2023-05-25T03:39:15.653Z,95033.75
2023-05-25T03:41:46.714Z,95028.44
2023-05-25T03:44:18.099Z,95030.06
2023-05-25T03:46:44.837Z,95034.31
2023-05-25T03:49:14.038Z,95034.31
2023-05-25T03:51:41.512Z,95036.50
2023-05-25T03:54:08.270Z,95031.66
2023-05-25T03:56:37.229Z,95031.66
2023-05-25T03:59:08.664Z,95032.47
2023-05-25T04:01:40.051Z,95034.91
2023-05-25T04:04:08.915Z,95033.28
2023-05-25T04:06:38.602Z,95050.78
2023-05-25T04:09:07.460Z,95050.59
2023-05-25T04:11:36.432Z,95056.09
2023-05-25T04:14:05.279Z,95057.13
2023-05-25T04:16:31.943Z,95062.41
2023-05-25T04:19:03.316Z,95056.09
2023-05-25T04:21:32.433Z,95063.81
2023-05-25T04:23:59.224Z,95063.47
2023-05-25T04:26:28.093Z,95060.56
2023-05-25T04:29:00.371Z,95058.94
2023-05-25T04:31:27.248Z,95058.16
2023-05-25T04:33:56.191Z,95068.75
2023-05-25T04:36:25.115Z,95070.81
2023-05-25T04:38:54.848Z,95080.91
2023-05-25T04:41:21.682Z,95079.97
2023-05-25T04:44:05.807Z,95072.09
2023-05-25T04:46:39.232Z,95083.63
2023-05-25T04:49:09.900Z,95075.25
2023-05-25T04:51:38.720Z,95081.19
2023-05-25T04:54:06.077Z,95073.25
2023-05-25T04:56:34.943Z,95073.47
2023-05-25T04:59:04.030Z,95059.34
2023-05-25T05:01:31.213Z,95060.63
2023-05-25T05:04:00.168Z,95069.44
2023-05-25T05:06:29.113Z,95064.84
2023-05-25T05:08:57.945Z,95060.19
2023-05-25T05:11:24.665Z,95059.63
2023-05-25T05:13:51.413Z,95063.69
2023-05-25T05:16:22.895Z,95063.84
2023-05-25T05:18:51.949Z,95059.69
2023-05-25T05:21:19.637Z,95062.94
2023-05-25T05:23:52.269Z,95061.66
2023-05-25T05:26:19.300Z,95062.56
2023-05-25T05:28:48.278Z,95066.97
2023-05-25T05:31:17.413Z,95069.00
2023-05-25T05:33:44.296Z,95075.63
2023-05-25T05:36:11.254Z,95076.81
2023-05-25T05:38:40.410Z,95080.19
2023-05-25T05:41:14.205Z,95071.97
2023-05-25T05:43:44.204Z,95081.06
2023-05-25T05:46:13.229Z,95086.94
2023-05-25T05:48:42.492Z,95080.81
2023-05-25T05:51:14.357Z,95091.56
2023-05-25T05:53:41.047Z,95092.13
2023-05-25T05:56:17.359Z,95088.47
2023-05-25T05:58:47.575Z,95091.38
2023-05-25T06:01:19.681Z,95091.38
2023-05-25T06:03:48.762Z,95083.63
2023-05-25T06:06:15.733Z,95084.19
2023-05-25T06:08:47.564Z,95085.22
2023-05-25T06:11:16.533Z,95088.91
2023-05-25T06:13:46.675Z,95088.47
2023-05-25T06:16:15.670Z,95083.19
2023-05-25T06:18:42.444Z,95082.72
2023-05-25T06:21:12.865Z,95088.47
2023-05-25T06:23:39.995Z,95084.34
2023-05-25T06:26:06.854Z,95088.03
2023-05-25T06:28:33.589Z,95082.53
2023-05-25T06:31:03.629Z,95084.28
2023-05-25T06:33:33.212Z,95091.56
2023-05-25T06:36:02.087Z,95093.19
2023-05-25T06:38:29.229Z,95082.59
2023-05-25T06:41:02.746Z,95092.16
2023-05-25T06:43:32.339Z,95093.09
2023-05-25T06:46:02.030Z,95094.44
2023-05-25T06:48:28.834Z,95092.16
2023-05-25T06:50:55.548Z,95095.38
2023-05-25T06:53:24.414Z,95101.06
2023-05-25T06:55:51.158Z,95101.41
2023-05-25T06:58:17.941Z,95103.63
2023-05-25T07:00:47.123Z,95099.50
2023-05-25T07:03:14.057Z,95101.69
2023-05-25T07:05:40.904Z,95095.16
2023-05-25T07:08:07.664Z,95091.09
2023-05-25T07:10:36.749Z,95086.25
2023-05-25T07:13:03.491Z,95086.25
2023-05-25T07:15:30.415Z,95077.84
2023-05-25T07:17:57.457Z,95078.44
2023-05-25T07:20:24.555Z,95082.84
2023-05-25T07:22:53.622Z,95080.78
2023-05-25T07:25:22.586Z,95067.75
2023-05-25T07:27:50.481Z,95082.41
2023-05-25T07:30:19.891Z,95077.56
2023-05-25T07:32:46.680Z,95087.56
2023-05-25T07:35:13.503Z,95087.56
2023-05-25T07:37:41.133Z,95091.38
2023-05-25T07:40:09.049Z,95085.97
2023-05-25T07:42:36.436Z,95093.78
2023-05-25T07:45:06.689Z,95090.47
2023-05-25T07:47:35.736Z,95090.47
2023-05-25T07:50:07.796Z,95089.31
2023-05-25T07:52:34.466Z,95094.75
2023-05-25T07:55:01.256Z,95097.75
2023-05-25T07:57:29.779Z,95094.91
2023-05-25T07:59:59.123Z,95099.00
2023-05-25T08:02:32.147Z,95105.78
2023-05-25T08:05:00.013Z,95110.22
2023-05-25T08:07:26.757Z,95112.00
2023-05-25T08:09:56.034Z,95122.13
2023-05-25T08:14:59.411Z,95125.09
2023-05-25T08:17:28.383Z,95147.06
2023-05-25T08:19:57.582Z,95142.16
2023-05-25T08:22:24.324Z,95147.66
2023-05-25T08:24:53.449Z,95151.56
2023-05-25T08:27:20.177Z,95155.25
2023-05-25T08:29:49.001Z,95162.59
2023-05-25T08:32:15.959Z,95159.38
2023-05-25T08:34:44.787Z,95173.63
2023-05-25T08:37:14.533Z,95166.16
2023-05-25T08:39:41.683Z,95169.41
2023-05-25T08:42:10.546Z,95168.34
2023-05-25T08:44:40.399Z,95179.53
2023-05-25T08:47:08.163Z,95173.66
2023-05-25T08:49:41.334Z,95171.38
2023-05-25T08:52:16.935Z,95174.69
2023-05-25T08:54:44.289Z,95182.19
2023-05-25T08:57:20.239Z,95183.44
2023-05-25T08:59:52.466Z,95182.41
2023-05-25T09:03:00.610Z,95193.81
2023-05-25T09:05:29.996Z,95201.63
2023-05-25T09:07:58.969Z,95198.34
2023-05-25T09:10:27.850Z,95197.19
2023-05-25T09:12:56.705Z,95202.94
2023-05-25T09:15:28.153Z,95203.13
2023-05-25T09:17:57.269Z,95201.00
2023-05-25T09:20:31.594Z,95204.22
2023-05-25T09:23:02.830Z,95199.38
2023-05-25T09:25:29.504Z,95201.22
2023-05-25T09:27:58.786Z,95198.34
2023-05-25T09:30:32.908Z,95199.38
2023-05-25T09:33:17.627Z,95194.91
2023-05-25T09:35:45.458Z,95192.47
2023-05-25T09:38:16.369Z,95193.50
2023-05-25T09:40:44.085Z,95183.34
2023-05-25T09:43:15.649Z,95185.16
2023-05-25T09:45:46.639Z,95179.09
2023-05-25T09:48:15.681Z,95171.34
2023-05-25T09:50:45.459Z,95175.03
2023-05-25T09:53:16.425Z,95173.16
2023-05-25T09:55:53.189Z,95169.72
2023-05-25T09:58:23.811Z,95166.25
2023-05-25T10:00:55.568Z,95173.78
2023-05-25T10:03:22.745Z,95161.59
2023-05-25T10:05:52.176Z,95162.75
2023-05-25T10:08:20.266Z,95156.63
2023-05-25T10:10:50.296Z,95164.44
2023-05-25T10:13:23.398Z,95160.38
2023-05-25T10:15:53.089Z,95152.00
2023-05-25T10:18:26.214Z,95154.63
2023-05-25T10:21:06.575Z,95144.06
2023-05-25T10:23:38.694Z,95142.81
2023-05-25T10:26:08.770Z,95140.41
2023-05-25T10:28:36.710Z,95144.06
2023-05-25T10:31:03.746Z,95131.44
2023-05-25T10:33:33.553Z,95129.81
2023-05-25T10:36:09.345Z,95124.53
2023-05-25T10:38:40.992Z,95115.19
2023-05-25T10:41:11.630Z,95115.97
2023-05-25T10:43:38.726Z,95097.69
2023-05-25T10:46:08.625Z,95104.22
2023-05-25T10:48:38.942Z,95097.88
2023-05-25T10:51:08.213Z,95101.28
2023-05-25T10:53:35.995Z,95092.31
2023-05-25T10:56:08.873Z,95089.00
2023-05-25T10:58:37.723Z,95082.88
2023-05-25T11:01:11.001Z,95082.59
2023-05-25T11:03:51.662Z,95079.22
2023-05-25T11:06:21.108Z,95082.06
2023-05-25T11:08:51.528Z,95085.09
2023-05-25T11:11:21.092Z,95085.53
2023-05-25T11:13:50.512Z,95084.13
2023-05-25T11:16:25.177Z,95095.75
2023-05-25T11:18:57.816Z,95083.56
2023-05-25T11:21:27.575Z,95088.84
2023-05-25T11:24:04.514Z,95082.91
2023-05-25T11:26:37.506Z,95084.88
2023-05-25T11:29:14.917Z,95085.81
2023-05-25T11:31:43.707Z,95086.44
2023-05-25T11:34:12.099Z,95085.81
2023-05-25T11:36:39.395Z,95094.13
2023-05-25T11:39:11.696Z,95091.50
2023-05-25T11:41:49.759Z,95093.94
2023-05-25T11:44:28.103Z,95091.66
2023-05-25T11:46:58.199Z,95093.94
2023-05-25T11:49:27.814Z,95094.06
2023-05-25T11:51:56.377Z,95083.72
2023-05-25T11:54:27.883Z,95081.28
2023-05-25T11:56:57.464Z,95082.88
2023-05-25T11:59:28.227Z,95075.97
2023-05-25T12:02:03.213Z,95075.97
2023-05-25T12:04:31.188Z,95074.94
2023-05-25T12:07:07.043Z,95069.66
2023-05-25T12:09:36.678Z,95079.22
2023-05-25T12:12:06.685Z,95078.19
2023-05-25T12:14:41.506Z,95073.47
2023-05-25T12:17:10.556Z,95075.06
2023-05-25T12:19:37.401Z,95062.88
2023-05-25T12:22:04.406Z,95071.44
2023-05-25T12:24:31.230Z,95052.91
2023-05-25T12:26:58.814Z,95047.59
2023-05-25T12:29:26.430Z,95040.06
2023-05-25T12:31:53.165Z,95038.47
2023-05-25T12:34:24.234Z,95038.00
2023-05-25T12:36:54.918Z,95028.47
2023-05-25T12:39:31.041Z,95035.53
2023-05-25T12:41:59.514Z,95024.94
2023-05-25T12:44:35.951Z,95019.63
2023-05-25T12:47:24.298Z,95008.47
2023-05-25T12:49:54.835Z,95011.69
2023-05-25T12:52:37.410Z,95005.38
2023-05-25T12:55:27.390Z,95002.94
2023-05-25T12:58:09.046Z,94992.78
2023-05-25T13:00:39.509Z,94993.94
2023-05-25T13:03:09.178Z,94991.31
2023-05-25T13:05:37.156Z,94983.59
2023-05-25T13:08:04.460Z,94986.25
2023-05-25T13:10:32.944Z,94979.34
2023-05-25T13:13:03.876Z,94972.44
2023-05-25T13:15:32.781Z,94976.53
2023-05-25T13:17:59.632Z,94965.53
2023-05-25T13:20:27.182Z,94967.13
2023-05-25T13:22:56.184Z,94975.66
2023-05-25T13:25:25.366Z,94963.47
2023-05-25T13:27:52.802Z,94975.66
2023-05-25T13:30:21.969Z,94963.00
2023-05-25T13:32:51.851Z,94963.00
2023-05-25T13:35:41.473Z,94960.81
2023-05-25T13:38:10.446Z,94963.00
2023-05-25T13:40:37.587Z,94967.72
2023-05-25T13:43:07.073Z,94971.97
2023-05-25T13:45:36.044Z,94965.66
2023-05-25T13:48:07.592Z,94963.78
2023-05-25T13:50:34.469Z,94973.00
2023-05-25T13:53:01.168Z,94966.69
2023-05-25T13:55:28.028Z,94964.25
2023-05-25T13:57:54.840Z,94964.81
2023-05-25T14:00:23.948Z,94968.31
2023-05-25T14:02:50.908Z,94966.91
2023-05-25T14:05:19.818Z,94966.69
2023-05-25T14:07:49.691Z,94967.47
2023-05-25T14:10:16.694Z,94965.88
2023-05-25T14:12:46.114Z,94968.75
2023-05-25T14:15:14.861Z,94960.22
2023-05-25T14:17:41.695Z,94967.94
2023-05-25T14:20:09.668Z,94961.03
2023-05-25T14:22:41.232Z,94955.38
2023-05-25T14:25:08.552Z,94951.69
2023-05-25T14:27:37.452Z,94942.28
2023-05-25T14:30:04.477Z,94939.84
2023-05-25T14:32:31.183Z,94940.66
2023-05-25T14:35:00.061Z,94940.88
2023-05-25T14:37:29.102Z,94943.53
2023-05-25T14:39:56.303Z,94944.34
2023-05-25T14:42:23.484Z,94935.78
2023-05-25T14:44:52.294Z,94939.47
2023-05-25T14:47:19.109Z,94937.41
2023-05-25T14:49:45.848Z,94937.41
2023-05-25T14:52:12.568Z,94926.16
2023-05-25T14:54:44.899Z,94930.97
2023-05-25T14:57:12.394Z,94930.19
2023-05-25T14:59:39.326Z,94932.47
2023-05-25T15:02:06.217Z,94934.09
2023-05-25T15:04:33.106Z,94940.66
2023-05-25T15:07:00.034Z,94928.78
2023-05-25T15:09:26.855Z,94921.66
2023-05-25T15:11:56.292Z,94915.81
2023-05-25T15:14:43.962Z,94921.09
2023-05-25T15:17:12.912Z,94924.44
2023-05-25T15:19:41.803Z,94931.03
2023-05-25T15:22:08.497Z,94940.72
2023-05-25T15:24:35.298Z,94952.59
2023-05-25T15:27:07.262Z,94944.28
2023-05-25T15:29:34.066Z,94932.19
2023-05-25T15:32:03.511Z,94935.41
2023-05-25T15:34:30.449Z,94942.09
2023-05-25T15:37:00.421Z,94945.59
2023-05-25T15:39:27.252Z,94945.34
2023-05-25T15:41:54.528Z,94943.03
2023-05-25T15:44:21.826Z,94951.09
2023-05-25T15:46:50.752Z,94949.28
2023-05-25T15:49:19.688Z,94951.09
2023-05-25T15:51:46.415Z,94953.75
2023-05-25T15:54:15.605Z,94959.63
2023-05-25T15:56:42.499Z,94955.16
2023-05-25T15:59:12.525Z,94962.53
2023-05-25T16:01:41.778Z,94960.09
2023-05-25T16:04:08.722Z,94946.72
2023-05-25T16:06:36.333Z,94946.28
2023-05-25T16:09:04.158Z,94948.34
2023-05-25T16:11:33.267Z,94961.00
2023-05-25T16:14:02.224Z,94964.25
2023-05-25T16:16:29.722Z,94962.06
2023-05-25T16:18:56.500Z,94966.31
2023-05-25T16:21:27.972Z,94962.06
2023-05-25T16:24:01.072Z,94963.09
2023-05-25T16:26:29.975Z,94972.84
2023-05-25T16:29:02.267Z,94958.69
2023-05-25T16:31:28.933Z,94975.72
2023-05-25T16:33:55.721Z,94979.88
2023-05-25T16:36:26.699Z,94981.25
2023-05-25T16:38:55.803Z,94986.78
2023-05-25T16:41:22.914Z,94987.22
2023-05-25T16:43:49.641Z,94988.63
2023-05-25T16:46:18.699Z,95002.22
2023-05-25T16:48:45.524Z,95008.53
2023-05-25T16:51:16.823Z,95018.09
2023-05-25T16:53:45.762Z,95029.16
2023-05-25T16:56:12.533Z,95038.50
2023-05-25T16:58:42.440Z,95032.38
2023-05-25T17:01:09.260Z,95028.44
2023-05-25T17:03:38.257Z,95031.88
2023-05-25T17:06:05.268Z,95044.69
2023-05-25T17:08:36.995Z,95050.22
2023-05-25T17:11:05.977Z,95045.94
2023-05-25T17:13:35.836Z,95054.47
2023-05-25T17:16:05.352Z,95048.16
2023-05-25T17:18:34.244Z,95041.81
2023-05-25T17:21:05.734Z,95041.22
2023-05-25T17:23:34.696Z,95040.66
2023-05-25T17:26:06.039Z,95041.09
2023-05-25T17:28:33.055Z,95039.47
2023-05-25T17:31:02.654Z,95047.06
2023-05-25T17:33:31.627Z,95046.50
2023-05-25T17:36:00.573Z,95059.94
2023-05-25T17:38:27.752Z,95059.94
2023-05-25T17:40:56.620Z,95044.94
2023-05-25T17:43:25.869Z,95043.09
2023-05-25T17:45:52.853Z,95041.69
2023-05-25T17:48:19.627Z,95047.44
2023-05-25T17:50:48.470Z,95047.44
2023-05-25T17:53:17.296Z,95045.25
2023-05-25T17:55:44.149Z,95041.19
2023-05-25T17:58:13.158Z,95031.25
2023-05-25T18:00:42.036Z,95043.91
2023-05-25T18:03:11.017Z,95050.47
2023-05-25T18:05:38.681Z,95058.41
2023-05-25T18:08:07.896Z,95057.59
2023-05-25T18:10:36.673Z,95062.31
2023-05-25T18:13:03.373Z,95069.66
2023-05-25T18:15:34.715Z,95075.41
2023-05-25T18:18:03.682Z,95070.13
2023-05-25T18:20:32.574Z,95076.41
2023-05-25T18:22:59.490Z,95081.69
2023-05-25T18:25:26.314Z,95079.50
2023-05-25T18:27:52.974Z,95090.53
2023-05-25T18:30:19.684Z,95097.00
2023-05-25T18:32:51.118Z,95100.66
2023-05-25T18:35:23.201Z,95107.00
2023-05-25T18:37:49.965Z,95119.63
2023-05-25T18:40:19.103Z,95119.50
2023-05-25T18:42:45.813Z,95134.09
2023-05-25T18:45:14.735Z,95132.47
2023-05-25T18:47:44.116Z,95134.34
2023-05-25T18:50:12.451Z,95145.94
2023-05-25T18:52:42.135Z,95146.34
2023-05-25T18:55:09.134Z,95147.94
2023-05-25T18:57:38.287Z,95161.19
2023-05-25T19:00:11.189Z,95173.22
2023-05-25T19:02:38.889Z,95176.91
2023-05-25T19:05:06.468Z,95180.38
2023-05-25T19:07:37.765Z,95183.22
2023-05-25T19:10:08.886Z,95192.38
2023-05-25T19:12:35.961Z,95202.19
2023-05-25T19:15:06.125Z,95221.13
2023-05-25T19:17:38.000Z,95232.72
2023-05-25T19:20:04.986Z,95229.47
2023-05-25T19:22:33.836Z,95236.03
2023-05-25T19:25:01.312Z,95245.78
2023-05-25T19:27:33.317Z,95247.84
2023-05-25T19:30:02.212Z,95251.50
2023-05-25T19:32:33.686Z,95255.19
2023-05-25T19:35:05.064Z,95253.56
2023-05-25T19:37:34.490Z,95267.81
2023-05-25T19:40:03.884Z,95257.22
2023-05-25T19:42:35.764Z,95261.94
2023-05-25T19:45:07.226Z,95261.31
2023-05-25T19:47:33.984Z,95256.00
2023-05-25T19:50:02.901Z,95257.03
2023-05-25T19:52:31.886Z,95254.41
2023-05-25T19:54:58.541Z,95261.31
2023-05-25T19:57:27.346Z,95260.28
2023-05-25T19:59:54.065Z,95250.72
2023-05-25T20:02:24.197Z,95244.41
2023-05-25T20:04:53.193Z,95240.16
2023-05-25T20:07:22.164Z,95225.09
2023-05-25T20:09:51.050Z,95212.66
2023-05-25T20:12:17.812Z,95218.59
2023-05-25T20:14:47.014Z,95198.44
2023-05-25T20:17:15.923Z,95173.81
2023-05-25T20:19:42.693Z,95168.16
2023-05-25T20:22:11.517Z,95157.13
2023-05-25T20:24:41.359Z,95150.22
2023-05-25T20:27:10.408Z,95136.41
2023-05-25T20:29:40.262Z,95135.97
2023-05-25T20:32:11.976Z,95123.78
2023-05-25T20:34:41.700Z,95118.47
2023-05-25T20:37:13.094Z,95113.19
2023-05-25T20:39:42.680Z,95121.75
2023-05-25T20:42:14.016Z,95116.47
2023-05-25T20:44:40.758Z,95111.16
2023-05-25T20:47:10.591Z,95102.22
2023-05-25T20:49:37.284Z,95109.13
2023-05-25T20:52:04.236Z,95109.13
2023-05-25T20:54:31.055Z,95115.19
2023-05-25T20:56:57.811Z,95119.69
2023-05-25T20:59:24.626Z,95124.16
2023-05-25T21:01:57.022Z,95127.84
2023-05-25T21:04:23.799Z,95131.31
2023-05-25T21:06:52.966Z,95122.94
2023-05-25T21:09:22.563Z,95103.97
2023-05-25T21:11:49.570Z,95095.00
2023-05-25T21:14:16.692Z,95105.38
2023-05-25T21:16:50.116Z,95102.50
2023-05-25T21:19:17.201Z,95104.13
2023-05-25T21:21:46.081Z,95106.34
2023-05-25T21:24:12.953Z,95100.03
2023-05-25T21:26:44.975Z,95110.38
2023-05-25T21:29:11.717Z,95102.25
2023-05-25T21:31:38.444Z,95101.22
2023-05-25T21:34:05.181Z,95108.13
2023-05-25T21:36:33.978Z,95112.38
2023-05-25T21:39:02.830Z,95099.16
2023-05-25T21:41:32.125Z,95107.66
2023-05-25T21:44:01.004Z,95097.09
2023-05-25T21:46:27.765Z,95101.59
2023-05-25T21:48:59.229Z,95091.22
2023-05-25T21:51:30.049Z,95104.41
2023-05-25T21:53:58.938Z,95102.59
2023-05-25T21:56:27.774Z,95104.19
2023-05-25T21:58:55.043Z,95093.38
2023-05-25T22:01:24.813Z,95094.19
2023-05-25T22:03:53.738Z,95080.97
2023-05-25T22:06:20.460Z,95079.94
2023-05-25T22:08:49.317Z,95084.19
2023-05-25T22:11:20.678Z,95077.28
2023-05-25T22:13:52.090Z,95072.59
2023-05-25T22:16:18.903Z,95071.56
2023-05-25T22:18:50.358Z,95074.19
2023-05-25T22:21:17.044Z,95060.84
2023-05-25T22:23:43.712Z,95063.63
2023-05-25T22:26:15.084Z,95063.41
2023-05-25T22:28:42.023Z,95063.63
2023-05-25T22:31:09.187Z,95056.25
2023-05-25T22:33:35.994Z,95058.91
2023-05-25T22:36:08.080Z,95063.16
2023-05-25T22:38:34.871Z,95063.16
2023-05-25T22:41:11.380Z,95070.13
2023-05-25T22:43:40.464Z,95073.75
2023-05-25T22:46:09.705Z,95070.13
2023-05-25T22:48:38.745Z,95064.81
2023-05-25T22:51:10.541Z,95067.47
2023-05-25T22:53:39.353Z,95060.31
2023-05-25T22:56:06.069Z,95057.66
2023-05-25T22:58:35.084Z,95061.13
2023-05-25T23:01:01.688Z,95069.88
2023-05-25T23:03:30.871Z,95073.34
2023-05-25T23:05:59.789Z,95072.31
2023-05-25T23:08:31.868Z,95069.66
2023-05-25T23:11:00.748Z,95071.28
2023-05-25T23:13:27.855Z,95072.06
2023-05-25T23:15:55.477Z,95071.28
2023-05-25T23:18:22.249Z,95073.94
2023-05-25T23:20:51.088Z,95076.56
2023-05-25T23:23:20.794Z,95070.25
2023-05-25T23:25:47.475Z,95072.91
2023-05-25T23:28:16.849Z,95071.88
2023-05-25T23:30:45.724Z,95059.66
2023-05-25T23:33:12.385Z,95069.22
2023-05-25T23:35:39.051Z,95060.69
2023-05-25T23:38:06.202Z,95076.13
2023-05-25T23:40:33.345Z,95079.81
2023-05-25T23:43:01.231Z,95080.59
2023-05-25T23:45:27.967Z,95083.03
2023-05-25T23:47:56.811Z,95084.66
2023-05-25T23:50:23.577Z,95075.09
2023-05-25T23:52:52.377Z,95074.06
2023-05-25T23:55:19.278Z,95071.66
2023-05-25T23:57:48.290Z,95074.06
